CheckWX is a tool to help pilots better visualize weather data.  It is not intended as a substitute for an official pre-flight weather briefing.

01:07:56 UTC

KVAY METAR
South Jersey Regional Airport
Mount Holly, New Jersey, USA
Current

14 mins ago

KVAY 150054Z AUTO 00000KT 10SM CLR 23/18 A3003 RMK AO2 SLP167 T02330178
Observed
Jul-15 @ 00:54 UTC
Visibility
10 SM
Flight Rules
VFR
Cloud Levels
  • Clear skies
Temperature
23°C / 73°F
Dewpoint
18°C / 64°F
Humidity
74%
Altimeter
30.03" Hg
Pressure
1016.92 hPa
Previous

1 hour ago

KVAY 142354Z AUTO 00000KT 10SM CLR 26/18 A3001 RMK AO2 SLP161 T02610178 10306 20261 51015
Observed
Jul-14 @ 23:54 UTC
Visibility
10 SM
Flight Rules
VFR
Cloud Levels
  • Clear skies
Temperature
26°C / 79°F
Dewpoint
18°C / 64°F
Humidity
61%
Altimeter
30.01" Hg
Pressure
1016.22 hPa
Previous

2 hours ago

KVAY 142254Z AUTO 02004KT 10SM CLR 28/14 A3000 RMK AO2 SLP157 T02830144
Observed
Jul-14 @ 22:54 UTC
Wind
  • 020° at 4 KTS
Visibility
10 SM
Flight Rules
VFR
Cloud Levels
  • Clear skies
Temperature
28°C / 82°F
Dewpoint
14°C / 57°F
Humidity
42%
Altimeter
30" Hg
Pressure
1015.92 hPa